Terminal Aerodrome Forecast
Issued by NWS

Home | Current Version | Previous Version | Text Only | Print | Product List | Glossary On
Versions: 1 2 3 4 5 6 7 8 9 10 11 12 13 14 15 16 17 18 19 20 21 22 23 24 25 26 27 28 29 30 31 32 33 34 35 36
000
FTUS43 KPAH 191140
TAFCGI
TAF
KCGI 191140Z 1912/2012 35014G24KT P6SM VCSH BKN020 OVC035
     FM191700 35018G29KT P6SM -SHRA OVC025
     FM192300 34015G22KT P6SM OVC035
     FM200300 33014KT P6SM SCT150=

USA.gov is the U.S. government's official web portal to all federal, state and local government web resources and services.